createdAt,value
2018-04-12T00:01:42.522Z,11.40
2018-04-12T00:04:10.847Z,11.30
2018-04-12T00:06:39.121Z,11.30
2018-04-12T00:09:07.387Z,11.30
2018-04-12T00:11:36.766Z,11.40
2018-04-12T00:14:05.610Z,11.40
2018-04-12T00:16:33.878Z,11.40
2018-04-12T00:19:02.149Z,11.40
2018-04-12T00:21:30.490Z,11.30
2018-04-12T00:23:58.786Z,11.30
2018-04-12T00:26:27.081Z,11.30
2018-04-12T00:28:55.358Z,11.30
2018-04-12T00:31:23.658Z,11.30
2018-04-12T00:33:51.921Z,11.20
2018-04-12T00:36:20.219Z,11.30
2018-04-12T00:38:48.543Z,11.30
2018-04-12T00:41:17.680Z,11.30
2018-04-12T00:43:46.850Z,11.30
2018-04-12T00:46:14.345Z,11.30
2018-04-12T00:48:42.646Z,11.40
2018-04-12T00:51:10.908Z,11.40
2018-04-12T00:53:51.917Z,11.50
2018-04-12T00:56:20.243Z,11.60
2018-04-12T00:58:48.541Z,11.50
2018-04-12T01:01:17.478Z,11.50
2018-04-12T01:03:45.858Z,11.60
2018-04-12T01:06:14.150Z,11.60
2018-04-12T01:08:42.457Z,11.50
2018-04-12T01:11:10.717Z,11.40
2018-04-12T01:13:38.990Z,11.40
2018-04-12T01:16:07.289Z,11.40
2018-04-12T01:18:34.794Z,11.40
2018-04-12T01:21:03.092Z,11.40
2018-04-12T01:23:33.198Z,11.40
2018-04-12T01:26:02.559Z,11.40
2018-04-12T01:28:32.089Z,11.40
2018-04-12T01:31:01.339Z,11.40
2018-04-12T01:33:30.582Z,11.40
2018-04-12T01:35:58.879Z,11.40
2018-04-12T01:38:27.177Z,11.40
2018-04-12T01:40:55.458Z,11.40
2018-04-12T01:43:23.764Z,11.40
2018-04-12T01:45:51.247Z,11.40
2018-04-12T01:48:19.523Z,11.30
2018-04-12T01:50:47.799Z,11.40
2018-04-12T01:53:16.137Z,11.40
2018-04-12T01:55:44.377Z,11.40
2018-04-12T01:58:11.874Z,11.40
2018-04-12T02:00:40.167Z,11.30
2018-04-12T02:03:08.425Z,11.30
2018-04-12T02:05:36.680Z,11.30
2018-04-12T02:08:04.994Z,11.30
2018-04-12T02:10:33.303Z,11.30
2018-04-12T02:13:01.600Z,11.20
2018-04-12T02:15:30.388Z,11.30
2018-04-12T02:17:58.692Z,11.40
2018-04-12T02:20:26.964Z,11.30
2018-04-12T02:22:55.229Z,11.30
2018-04-12T02:25:23.546Z,11.30
2018-04-12T02:27:51.797Z,11.30
2018-04-12T02:30:20.088Z,11.20
2018-04-12T02:32:48.377Z,11.20
2018-04-12T02:35:16.665Z,11.30
2018-04-12T02:37:44.926Z,11.30
2018-04-12T02:40:13.213Z,11.30
2018-04-12T02:42:41.485Z,11.30
2018-04-12T02:45:09.781Z,11.20
2018-04-12T02:47:38.880Z,11.30
2018-04-12T02:50:07.136Z,11.20
2018-04-12T02:52:35.432Z,11.20
2018-04-12T02:55:03.703Z,11.20
2018-04-12T02:57:31.994Z,11.30
2018-04-12T03:00:01.147Z,11.20
2018-04-12T03:02:29.746Z,11.20
2018-04-12T03:04:58.009Z,11.30
2018-04-12T03:07:26.301Z,11.30
2018-04-12T03:09:54.585Z,11.10
2018-04-12T03:12:22.835Z,11.30
2018-04-12T03:14:51.124Z,11.20
2018-04-12T03:17:19.413Z,11.10
2018-04-12T03:19:47.709Z,11.10
2018-04-12T03:22:16.000Z,11.00
2018-04-12T03:24:44.704Z,11.00
2018-04-12T03:27:12.969Z,11.00
2018-04-12T03:29:40.465Z,11.00
2018-04-12T03:32:08.753Z,10.80
2018-04-12T03:34:38.000Z,11.00
2018-04-12T03:37:06.790Z,10.90
2018-04-12T03:39:35.044Z,10.90
2018-04-12T03:42:03.353Z,10.80
2018-04-12T03:44:31.616Z,10.90
2018-04-12T03:47:01.084Z,10.80
2018-04-12T03:49:30.046Z,10.80
2018-04-12T03:51:58.355Z,10.90
2018-04-12T03:54:26.616Z,10.90
2018-04-12T03:56:54.132Z,10.90
2018-04-12T03:59:22.376Z,10.90
2018-04-12T04:01:50.660Z,10.80
2018-04-12T04:04:18.925Z,10.80
2018-04-12T04:06:47.199Z,10.80
2018-04-12T04:09:15.500Z,10.70
2018-04-12T04:11:43.777Z,10.70
2018-04-12T04:14:23.916Z,10.70
2018-04-12T04:17:03.901Z,10.60
2018-04-12T04:19:44.382Z,10.60
2018-04-12T04:22:12.656Z,10.50
2018-04-12T04:24:41.273Z,10.60
2018-04-12T04:27:08.764Z,10.60
2018-04-12T04:29:37.065Z,10.50
2018-04-12T04:32:05.355Z,10.60
2018-04-12T04:34:33.643Z,10.50
2018-04-12T04:37:01.901Z,10.60
2018-04-12T04:39:31.120Z,10.50
2018-04-12T04:42:00.071Z,10.50
2018-04-12T04:44:28.361Z,10.50
2018-04-12T04:46:56.649Z,10.50
2018-04-12T04:49:24.926Z,10.50
2018-04-12T04:51:53.206Z,10.50
2018-04-12T04:54:21.465Z,10.40
2018-04-12T04:56:48.990Z,10.40
2018-04-12T04:59:17.249Z,10.40
2018-04-12T05:01:44.785Z,10.40
2018-04-12T05:04:13.040Z,10.40
2018-04-12T05:06:41.300Z,10.40
2018-04-12T05:09:09.598Z,10.50
2018-04-12T05:11:39.102Z,10.40
2018-04-12T05:14:08.275Z,10.40
2018-04-12T05:16:37.130Z,10.40
2018-04-12T05:19:05.398Z,10.40
2018-04-12T05:21:33.711Z,10.40
2018-04-12T05:24:01.980Z,10.40
2018-04-12T05:26:31.265Z,10.40
2018-04-12T05:28:59.562Z,10.30
2018-04-12T05:31:27.843Z,10.40
2018-04-12T05:33:56.107Z,10.30
2018-04-12T05:36:24.397Z,10.30
2018-04-12T05:38:52.685Z,10.30
2018-04-12T05:41:20.982Z,10.30
2018-04-12T05:43:49.237Z,10.30
2018-04-12T05:46:17.517Z,10.30
2018-04-12T05:48:45.806Z,10.30
2018-04-12T05:51:14.088Z,10.30
2018-04-12T05:53:42.368Z,10.30
2018-04-12T05:56:10.661Z,10.40
2018-04-12T05:58:38.980Z,10.50
2018-04-12T06:01:08.193Z,10.40
2018-04-12T06:03:39.675Z,10.50
2018-04-12T06:06:07.926Z,10.50
2018-04-12T06:08:36.208Z,10.50
2018-04-12T06:11:04.464Z,10.40
2018-04-12T06:13:37.427Z,10.50
2018-04-12T06:16:05.743Z,10.60
2018-04-12T06:18:34.033Z,10.60
2018-04-12T06:21:01.546Z,10.50
2018-04-12T06:23:31.017Z,10.60
2018-04-12T06:25:59.981Z,10.70
2018-04-12T06:28:28.239Z,10.60
2018-04-12T06:30:56.560Z,10.70
2018-04-12T06:33:24.821Z,10.70
2018-04-12T06:35:53.082Z,10.70
2018-04-12T06:38:21.364Z,10.70
2018-04-12T06:40:49.623Z,10.80
2018-04-12T06:43:17.934Z,10.80
2018-04-12T06:45:46.196Z,10.90
2018-04-12T06:48:14.477Z,10.80
2018-04-12T06:50:42.728Z,10.90
2018-04-12T06:53:11.015Z,10.90
2018-04-12T06:55:39.275Z,10.80
2018-04-12T06:58:08.139Z,10.90
2018-04-12T07:00:36.430Z,10.90
2018-04-12T07:03:04.689Z,10.90
2018-04-12T07:05:32.976Z,10.90
2018-04-12T07:08:02.279Z,11.00
2018-04-12T07:10:30.808Z,11.00
2018-04-12T07:12:59.105Z,11.10
2018-04-12T07:15:27.364Z,11.20
2018-04-12T07:17:55.641Z,11.20
2018-04-12T07:20:23.932Z,11.30
2018-04-12T07:22:52.196Z,11.50
2018-04-12T07:25:20.485Z,11.40
2018-04-12T07:27:50.714Z,11.40
2018-04-12T07:30:18.981Z,11.50
2018-04-12T07:32:47.242Z,11.50
2018-04-12T07:35:15.535Z,11.50
2018-04-12T07:37:43.831Z,11.50
2018-04-12T07:40:12.128Z,11.50
2018-04-12T07:42:40.397Z,11.50
2018-04-12T07:45:09.908Z,11.60
2018-04-12T07:47:39.438Z,11.70
2018-04-12T07:50:08.559Z,11.80
2018-04-12T07:52:37.617Z,11.80
2018-04-12T07:55:05.910Z,12.00
2018-04-12T07:57:34.198Z,12.10
2018-04-12T08:00:01.714Z,12.10
2018-04-12T08:02:31.243Z,12.20
2018-04-12T08:04:59.917Z,12.30
2018-04-12T08:07:28.176Z,12.30
2018-04-12T08:09:56.461Z,12.40
2018-04-12T08:12:24.741Z,12.50
2018-04-12T08:14:53.036Z,12.50
2018-04-12T08:17:20.545Z,12.50
2018-04-12T08:19:48.870Z,12.60
2018-04-12T08:22:17.151Z,12.50
2018-04-12T08:24:45.444Z,12.60
2018-04-12T08:27:13.709Z,12.60
2018-04-12T08:29:42.015Z,12.60
2018-04-12T08:32:10.293Z,12.60
2018-04-12T08:34:39.796Z,12.60
2018-04-12T08:37:09.299Z,12.70
2018-04-12T08:39:39.032Z,12.60
2018-04-12T08:42:08.346Z,12.50
2018-04-12T08:44:36.614Z,12.50
2018-04-12T08:47:04.932Z,12.50
2018-04-12T08:49:33.230Z,12.50
2018-04-12T08:52:02.355Z,12.60
2018-04-12T08:54:31.829Z,12.60
2018-04-12T08:57:00.853Z,12.60
2018-04-12T08:59:29.110Z,12.60
2018-04-12T09:01:57.381Z,12.60
2018-04-12T09:04:25.701Z,12.60
2018-04-12T09:06:53.172Z,12.60
2018-04-12T09:09:21.459Z,12.80
2018-04-12T09:11:48.959Z,12.80
2018-04-12T09:14:17.256Z,12.90
2018-04-12T09:16:45.572Z,12.90
2018-04-12T09:19:13.861Z,13.00
2018-04-12T09:21:42.140Z,13.00
2018-04-12T09:24:10.432Z,13.10
2018-04-12T09:26:39.893Z,13.10
2018-04-12T09:29:08.764Z,13.10
2018-04-12T09:31:37.522Z,13.20
2018-04-12T09:34:05.776Z,13.20
2018-04-12T09:36:34.082Z,13.30
2018-04-12T09:39:01.579Z,13.30
2018-04-12T09:41:30.804Z,13.30
2018-04-12T09:43:59.105Z,13.30
2018-04-12T09:46:27.389Z,13.40
2018-04-12T09:48:55.677Z,13.40
2018-04-12T09:51:23.160Z,13.30
2018-04-12T09:53:51.458Z,13.40
2018-04-12T09:56:19.723Z,13.40
2018-04-12T09:58:48.032Z,13.50
2018-04-12T10:01:16.294Z,13.50
2018-04-12T10:03:44.591Z,13.70
2018-04-12T10:06:18.587Z,13.70
2018-04-12T10:08:52.456Z,13.80
2018-04-12T10:11:20.767Z,14.00
2018-04-12T10:13:49.035Z,14.30
2018-04-12T10:16:16.561Z,14.20
2018-04-12T10:18:44.845Z,14.40
2018-04-12T10:21:13.104Z,14.60
2018-04-12T10:23:41.396Z,14.60
2018-04-12T10:26:09.652Z,14.60
2018-04-12T10:28:37.952Z,14.70
2018-04-12T10:31:06.246Z,14.80
2018-04-12T10:33:34.508Z,14.90
2018-04-12T10:36:02.830Z,15.10
2018-04-12T10:38:31.944Z,15.20
2018-04-12T10:41:01.017Z,15.20
2018-04-12T10:43:30.993Z,15.20
2018-04-12T10:45:59.252Z,15.10
2018-04-12T10:48:27.560Z,15.40
2018-04-12T10:50:55.836Z,15.50
2018-04-12T10:53:24.096Z,15.70
2018-04-12T10:55:52.378Z,15.80
2018-04-12T10:58:20.642Z,15.80
2018-04-12T11:00:48.982Z,15.80
2018-04-12T11:03:17.255Z,15.80
2018-04-12T11:05:44.752Z,15.80
2018-04-12T11:08:13.041Z,15.70
2018-04-12T11:10:43.274Z,15.70
2018-04-12T11:13:11.573Z,15.70
2018-04-12T11:15:39.825Z,15.60
2018-04-12T11:18:08.120Z,15.60
2018-04-12T11:20:36.425Z,15.60
2018-04-12T11:23:04.702Z,15.80
2018-04-12T11:25:33.039Z,15.70
2018-04-12T11:28:02.453Z,15.70
2018-04-12T11:30:31.304Z,15.70
2018-04-12T11:32:58.828Z,15.70
2018-04-12T11:35:27.121Z,15.60
2018-04-12T11:37:55.372Z,15.60
2018-04-12T11:40:22.897Z,15.60
2018-04-12T11:42:51.290Z,15.60
2018-04-12T11:45:20.429Z,15.80
2018-04-12T11:47:48.708Z,15.90
2018-04-12T11:50:16.997Z,15.80
2018-04-12T11:52:45.301Z,15.80
2018-04-12T11:55:13.591Z,15.70
2018-04-12T11:57:41.884Z,15.70
2018-04-12T12:00:11.080Z,15.70
2018-04-12T12:02:39.377Z,15.60
2018-04-12T12:05:08.188Z,15.60
2018-04-12T12:07:36.468Z,15.70
2018-04-12T12:10:04.756Z,15.90
2018-04-12T12:12:33.025Z,16.10
2018-04-12T12:15:02.013Z,16.40
2018-04-12T12:17:31.179Z,16.70
2018-04-12T12:20:00.076Z,16.90
2018-04-12T12:22:28.340Z,17.00
2018-04-12T12:24:56.633Z,17.10
2018-04-12T12:27:24.897Z,17.20
2018-04-12T12:29:53.189Z,17.10
2018-04-12T12:32:21.454Z,17.10
2018-04-12T12:34:49.741Z,17.10
2018-04-12T12:37:18.054Z,17.10
2018-04-12T12:39:46.327Z,17.20
2018-04-12T12:42:14.629Z,17.20
2018-04-12T12:44:42.883Z,17.20
2018-04-12T12:47:11.184Z,17.20
2018-04-12T12:49:40.371Z,17.20
2018-04-12T12:52:09.884Z,17.30
2018-04-12T12:54:39.304Z,17.40
2018-04-12T12:57:08.667Z,17.50
2018-04-12T12:59:37.515Z,17.70
2018-04-12T13:02:05.790Z,17.80
2018-04-12T13:04:34.090Z,18.00
2018-04-12T13:07:02.391Z,18.00
2018-04-12T13:09:30.722Z,17.80
2018-04-12T13:11:58.254Z,17.80
2018-04-12T13:14:26.548Z,18.00
2018-04-12T13:16:54.840Z,18.10
2018-04-12T13:19:23.112Z,18.20
2018-04-12T13:21:51.400Z,18.10
2018-04-12T13:24:19.660Z,18.00
2018-04-12T13:26:47.191Z,18.00
2018-04-12T13:29:15.462Z,18.00
2018-04-12T13:31:43.760Z,18.00
2018-04-12T13:34:12.049Z,18.10
2018-04-12T13:36:40.316Z,18.10
2018-04-12T13:39:08.610Z,18.30
2018-04-12T13:41:36.903Z,18.30
2018-04-12T13:44:05.204Z,18.40
2018-04-12T13:46:33.487Z,18.30
2018-04-12T13:49:01.806Z,18.20
2018-04-12T13:51:30.629Z,18.20
2018-04-12T13:53:58.897Z,18.30
2018-04-12T13:56:27.191Z,18.20
2018-04-12T13:58:55.448Z,18.20
2018-04-12T14:01:23.746Z,18.30
2018-04-12T14:03:52.015Z,18.40
2018-04-12T14:06:20.328Z,18.30
2018-04-12T14:08:47.833Z,18.20
2018-04-12T14:11:16.479Z,18.60
2018-04-12T14:13:45.942Z,18.50
2018-04-12T14:16:15.188Z,18.40
2018-04-12T14:18:43.891Z,18.40
2018-04-12T14:21:12.193Z,18.50
2018-04-12T14:23:42.430Z,18.50
2018-04-12T14:26:10.701Z,18.60
2018-04-12T14:28:39.006Z,18.70
2018-04-12T14:31:07.253Z,18.90
2018-04-12T14:33:38.908Z,18.70
2018-04-12T14:36:06.489Z,18.70
2018-04-12T14:38:34.729Z,18.80
2018-04-12T14:41:03.029Z,18.70
2018-04-12T14:43:34.163Z,18.80
2018-04-12T14:46:02.464Z,18.90
2018-04-12T14:48:32.049Z,19.10
2018-04-12T14:51:00.368Z,19.30
2018-04-12T14:53:31.172Z,19.30
2018-04-12T14:55:59.449Z,19.50
2018-04-12T14:58:27.709Z,19.40
2018-04-12T15:00:55.996Z,19.50
2018-04-12T15:03:25.293Z,19.60
2018-04-12T15:05:53.592Z,19.60
2018-04-12T15:08:21.864Z,19.40
2018-04-12T15:10:50.162Z,19.60
2018-04-12T15:13:18.455Z,19.60
2018-04-12T15:15:46.767Z,19.60
2018-04-12T15:18:15.045Z,19.50
2018-04-12T15:20:43.307Z,19.40
2018-04-12T15:23:11.601Z,19.30
2018-04-12T15:25:39.904Z,19.30
2018-04-12T15:28:09.113Z,19.30
2018-04-12T15:30:37.372Z,19.10
2018-04-12T15:33:05.682Z,19.10
2018-04-12T15:35:33.961Z,19.00
2018-04-12T15:38:01.461Z,19.00
2018-04-12T15:40:30.676Z,18.90
2018-04-12T15:42:58.948Z,18.90
2018-04-12T15:45:27.237Z,18.90
2018-04-12T15:47:55.509Z,18.90
2018-04-12T15:50:23.792Z,18.90
2018-04-12T15:52:52.049Z,18.90
2018-04-12T15:55:20.353Z,19.10
2018-04-12T15:57:48.643Z,19.10
2018-04-12T16:00:16.949Z,19.20
2018-04-12T16:02:46.218Z,19.20
2018-04-12T16:05:14.468Z,19.10
2018-04-12T16:07:42.752Z,19.30
2018-04-12T16:10:11.004Z,19.30
2018-04-12T16:12:39.293Z,19.20
2018-04-12T16:15:07.556Z,19.30
2018-04-12T16:17:35.852Z,19.40
2018-04-12T16:20:04.149Z,19.40
2018-04-12T16:22:31.652Z,19.40
2018-04-12T16:25:00.842Z,19.30
2018-04-12T16:27:29.133Z,19.30
2018-04-12T16:29:57.421Z,19.30
2018-04-12T16:32:24.924Z,19.30
2018-04-12T16:34:53.226Z,19.30
2018-04-12T16:37:21.532Z,19.30
2018-04-12T16:39:49.799Z,19.20
2018-04-12T16:42:18.074Z,19.10
2018-04-12T16:44:46.965Z,19.00
2018-04-12T16:47:14.447Z,19.00
2018-04-12T16:49:42.736Z,18.90
2018-04-12T16:52:11.021Z,18.80
2018-04-12T16:54:39.285Z,18.80
2018-04-12T16:57:07.564Z,18.80
2018-04-12T16:59:35.826Z,18.80
2018-04-12T17:02:04.116Z,18.70
2018-04-12T17:04:32.393Z,18.70
2018-04-12T17:07:01.383Z,18.60
2018-04-12T17:09:29.667Z,18.60
2018-04-12T17:11:58.058Z,18.60
2018-04-12T17:14:26.324Z,18.50
2018-04-12T17:16:54.586Z,18.40
2018-04-12T17:19:22.112Z,18.30
2018-04-12T17:21:51.607Z,18.10
2018-04-12T17:24:21.197Z,18.10
2018-04-12T17:26:49.874Z,18.10
2018-04-12T17:29:18.176Z,18.10
2018-04-12T17:31:46.441Z,18.00
2018-04-12T17:34:14.730Z,18.00
2018-04-12T17:36:43.025Z,17.90
2018-04-12T17:39:11.325Z,17.90
2018-04-12T17:41:39.576Z,17.80
2018-04-12T17:44:07.851Z,17.80
2018-04-12T17:46:36.284Z,17.80
2018-04-12T17:49:04.553Z,17.80
2018-04-12T17:51:32.846Z,17.70
2018-04-12T17:54:02.403Z,17.60
2018-04-12T17:56:31.229Z,17.60
2018-04-12T17:58:59.944Z,17.60
2018-04-12T18:01:28.240Z,17.50
2018-04-12T18:03:56.535Z,17.40
2018-04-12T18:06:24.808Z,17.40
2018-04-12T18:08:53.088Z,17.30
2018-04-12T18:11:21.755Z,17.30
2018-04-12T18:13:51.125Z,17.30
2018-04-12T18:16:20.443Z,17.20
2018-04-12T18:18:49.176Z,17.10
2018-04-12T18:21:17.495Z,17.20
2018-04-12T18:23:45.767Z,17.10
2018-04-12T18:26:14.046Z,17.00
2018-04-12T18:28:42.354Z,16.90
2018-04-12T18:31:10.644Z,16.90
2018-04-12T18:33:38.933Z,16.90
2018-04-12T18:36:07.188Z,16.80
2018-04-12T18:38:35.515Z,16.90
2018-04-12T18:41:03.824Z,16.70
2018-04-12T18:43:32.165Z,16.70
2018-04-12T18:46:00.438Z,16.60
2018-04-12T18:48:28.706Z,16.50
2018-04-12T18:50:56.997Z,16.40
2018-04-12T18:53:25.256Z,16.40
2018-04-12T18:55:53.574Z,16.40
2018-04-12T18:58:21.856Z,16.30
2018-04-12T19:00:50.873Z,16.30
2018-04-12T19:03:19.984Z,16.30
2018-04-12T19:05:48.248Z,16.20
2018-04-12T19:08:16.536Z,16.20
2018-04-12T19:10:44.810Z,16.10
2018-04-12T19:13:13.594Z,16.10
2018-04-12T19:15:41.860Z,16.00
2018-04-12T19:18:10.123Z,16.00
2018-04-12T19:20:38.452Z,16.00
2018-04-12T19:23:06.709Z,16.10
2018-04-12T19:25:34.972Z,16.00
2018-04-12T19:28:03.336Z,15.90
2018-04-12T19:30:34.014Z,15.90
2018-04-12T19:33:02.336Z,15.90
2018-04-12T19:35:31.255Z,15.90
2018-04-12T19:37:59.560Z,15.80
2018-04-12T19:40:27.836Z,15.80
2018-04-12T19:42:56.136Z,15.70
2018-04-12T19:45:24.398Z,15.70
2018-04-12T19:47:52.705Z,15.60
2018-04-12T19:50:20.953Z,15.60
2018-04-12T19:52:50.041Z,15.50
2018-04-12T19:55:18.324Z,15.50
2018-04-12T19:57:46.589Z,15.50
2018-04-12T20:00:14.883Z,15.50
2018-04-12T20:02:43.148Z,15.60
2018-04-12T20:05:11.451Z,15.50
2018-04-12T20:07:39.704Z,15.40
2018-04-12T20:10:07.962Z,15.40
2018-04-12T20:12:36.248Z,15.30
2018-04-12T20:15:04.510Z,15.40
2018-04-12T20:17:32.789Z,15.40
2018-04-12T20:20:02.342Z,15.30
2018-04-12T20:22:31.424Z,15.20
2018-04-12T20:25:01.089Z,15.20
2018-04-12T20:27:30.233Z,15.20
2018-04-12T20:29:58.522Z,15.10
2018-04-12T20:32:26.828Z,15.00
2018-04-12T20:34:55.117Z,15.00
2018-04-12T20:37:22.649Z,15.00
2018-04-12T20:39:50.933Z,15.00
2018-04-12T20:42:19.216Z,15.00
2018-04-12T20:44:47.521Z,14.90
2018-04-12T20:47:15.824Z,14.90
2018-04-12T20:49:44.136Z,14.90
2018-04-12T20:52:12.388Z,14.90
2018-04-12T20:54:40.676Z,14.80
2018-04-12T20:57:08.934Z,14.80
2018-04-12T20:59:37.229Z,14.80
2018-04-12T21:02:05.513Z,14.80
2018-04-12T21:04:33.832Z,14.80
2018-04-12T21:07:02.662Z,14.70
2018-04-12T21:09:32.038Z,14.70
2018-04-12T21:12:02.130Z,14.70
2018-04-12T21:14:30.412Z,14.70
2018-04-12T21:16:58.711Z,14.60
2018-04-12T21:19:26.968Z,14.60
2018-04-12T21:21:55.221Z,14.60
2018-04-12T21:24:23.504Z,14.60
2018-04-12T21:26:51.777Z,14.50
2018-04-12T21:29:20.057Z,14.50
2018-04-12T21:31:48.317Z,14.40
2018-04-12T21:34:16.621Z,14.30
2018-04-12T21:36:44.913Z,14.30
2018-04-12T21:39:13.160Z,14.30
2018-04-12T21:41:41.447Z,14.30
2018-04-12T21:44:09.708Z,14.30
2018-04-12T21:46:37.990Z,14.30
2018-04-12T21:49:05.473Z,14.30
2018-04-12T21:51:33.761Z,14.20
2018-04-12T21:54:02.427Z,14.20
2018-04-12T21:56:34.110Z,14.20
2018-04-12T21:59:02.581Z,14.10
2018-04-12T22:01:32.052Z,14.10
2018-04-12T22:04:01.454Z,14.00
2018-04-12T22:06:31.264Z,14.00
2018-04-12T22:08:59.558Z,14.00
2018-04-12T22:11:27.813Z,14.00
2018-04-12T22:13:56.074Z,13.90
2018-04-12T22:16:24.365Z,13.90
2018-04-12T22:18:52.624Z,13.80
2018-04-12T22:21:20.927Z,13.80
2018-04-12T22:23:49.181Z,13.70
2018-04-12T22:26:17.461Z,13.70
2018-04-12T22:28:45.719Z,13.70
2018-04-12T22:31:14.004Z,13.70
2018-04-12T22:33:45.483Z,13.60
2018-04-12T22:36:13.773Z,13.60
2018-04-12T22:38:42.029Z,13.60
2018-04-12T22:41:10.317Z,13.60
2018-04-12T22:43:38.569Z,13.60
2018-04-12T22:46:06.869Z,13.60
2018-04-12T22:48:35.125Z,13.50
2018-04-12T22:51:03.388Z,13.50
2018-04-12T22:53:32.584Z,13.50
2018-04-12T22:56:02.068Z,13.40
2018-04-12T22:58:30.371Z,13.30
2018-04-12T23:00:58.629Z,13.30
2018-04-12T23:03:26.924Z,13.30
2018-04-12T23:05:55.200Z,13.30
2018-04-12T23:08:23.491Z,13.20
2018-04-12T23:10:51.740Z,13.20
2018-04-12T23:13:23.337Z,13.20
2018-04-12T23:15:51.616Z,13.30
2018-04-12T23:18:19.869Z,13.20
2018-04-12T23:20:48.159Z,13.10
2018-04-12T23:23:16.445Z,13.10
2018-04-12T23:25:44.726Z,13.10
2018-04-12T23:28:13.044Z,13.10
2018-04-12T23:30:41.309Z,13.00
2018-04-12T23:33:09.560Z,13.00
2018-04-12T23:35:37.851Z,13.00
2018-04-12T23:38:06.136Z,13.00
2018-04-12T23:40:34.424Z,12.90
2018-04-12T23:43:03.827Z,12.90
2018-04-12T23:45:33.160Z,12.90
2018-04-12T23:48:07.492Z,12.80
2018-04-12T23:50:35.792Z,12.80
2018-04-12T23:53:03.280Z,12.80
2018-04-12T23:55:32.813Z,12.80
2018-04-12T23:58:02.740Z,12.70
